KHUM/HUM METAR and TAF weather

Enter ICAO airport designator
Station Type Date Time Source
KHUM METAR 2020/07/15 06:15 UTC NOAA

KHUM 150615Z AUTO 00000KT 10SM CLR 26/25 A2999 RMK AO2 T02550248


Station Type Date Time Source
KHUM Decoded METAR 2020/07/15 06:15 UTC NOAA

Houma-Terrebonne, LA, United States (KHUM) 29-34N 090-40W
Jul 15, 2020 - 02:15 AM EDT / 2020.07.15 0615 UTC
Wind: Calm:0
Visibility: 10 mile(s):0
Sky conditions: clear
Temperature: 77.9 F (25.5 C)
Dew Point: 76.6 F (24.8 C)
Relative Humidity: 95%
Pressure (altimeter): 29.99 in. Hg (1015 hPa)
ob: KHUM 150615Z AUTO 00000KT 10SM CLR 26/25 A2999 RMK AO2 T02550248
cycle: 6

Station Type Date Time Source
KHUM TAF 2020/07/15 06:22 UTC NOAA

TAF KHUM 150520Z 1506/1606 00000KT P6SM SKC
FM151600 24006KT P6SM VCTS SCT050CB
FM152200 21007KT P6SM VCTS BKN050CB
FM160000 22005KT P6SM BKN250

Example: see airport list